Time;durP1;ratioP1;P1;durP2;ratioP2;P2;SDS_P1;SDS_P2;PMS_P1;PMS_P2;Temp;Humidity;BMP_temperature;BMP_pressure;BME280_temperature;BME280_humidity;BME280_pressure;Samples;Min_cycle;Max_cycle;Signal;HPM_P1;HPM_P2
2023/06/10 00:02:23;;;;;;;7.85;4.68;;;;;;;25.99;44.87;100340.00;5053181;28;20044;-61
2023/06/10 00:04:52;;;;;;;7.47;4.68;;;;;;;26.18;44.82;100344.97;5046182;28;20574;-63
2023/06/10 00:07:19;;;;;;;6.45;4.15;;;;;;;26.01;45.09;100343.22;5072682;28;20538;-63
2023/06/10 00:09:47;;;;;;;7.38;4.35;;;;;;;26.15;44.87;100340.16;5054562;28;20053;-64
2023/06/10 00:12:16;;;;;;;6.20;4.38;;;;;;;26.05;45.18;100341.16;5058459;28;20052;-63
2023/06/10 00:14:44;;;;;;;7.18;4.13;;;;;;;25.90;45.62;100347.41;5073183;28;20055;-64
2023/06/10 00:17:11;;;;;;;11.07;4.60;;;;;;;26.10;44.94;100346.31;5073280;28;20059;-63
2023/06/10 00:19:40;;;;;;;9.35;5.00;;;;;;;25.91;45.83;100346.19;5062890;28;20515;-63
2023/06/10 00:22:09;;;;;;;7.90;4.68;;;;;;;25.90;45.69;100348.22;5073181;28;20540;-65
2023/06/10 00:24:36;;;;;;;8.30;4.57;;;;;;;25.76;45.70;100354.06;5072104;28;20504;-63
2023/06/10 00:27:05;;;;;;;9.50;4.82;;;;;;;25.54;46.82;100347.13;5078420;28;20051;-63
2023/06/10 00:29:33;;;;;;;8.38;4.53;;;;;;;25.46;46.75;100359.72;5093472;28;20150;-63
2023/06/10 00:32:00;;;;;;;7.05;4.22;;;;;;;25.51;46.79;100362.88;5083504;28;20054;-62
2023/06/10 00:34:27;;;;;;;11.77;4.30;;;;;;;25.52;46.95;100360.84;5075799;28;20048;-59
2023/06/10 00:36:55;;;;;;;8.93;5.00;;;;;;;25.33;47.63;100364.28;5058320;28;20044;-63
2023/06/10 00:39:22;;;;;;;5.72;3.90;;;;;;;25.54;47.29;100361.22;5075519;28;20049;-62
2023/06/10 00:41:49;;;;;;;8.43;4.40;;;;;;;25.37;47.91;100365.88;5074353;28;20057;-61
2023/06/10 00:44:17;;;;;;;7.30;4.60;;;;;;;25.28;48.28;100362.72;5056405;28;20053;-61
2023/06/10 00:46:44;;;;;;;6.50;4.18;;;;;;;25.23;48.68;100365.19;5056311;28;20052;-63
2023/06/10 00:49:12;;;;;;;6.85;4.25;;;;;;;25.25;48.21;100365.59;5055477;28;20551;-63
2023/06/10 00:51:39;;;;;;;9.32;4.43;;;;;;;25.29;48.46;100363.53;5056173;28;20052;-63
2023/06/10 00:54:07;;;;;;;8.40;4.97;;;;;;;25.45;48.19;100375.81;5067017;28;20048;-61
2023/06/10 00:56:35;;;;;;;6.40;4.35;;;;;;;25.15;49.19;100369.31;5094530;28;20603;-60
2023/06/10 00:59:02;;;;;;;7.57;5.00;;;;;;;25.16;49.45;100368.91;5089072;28;20048;-60
2023/06/10 01:01:30;;;;;;;6.43;4.53;;;;;;;25.14;49.29;100371.34;5076055;28;20495;-60
2023/06/10 01:03:58;;;;;;;7.93;4.45;;;;;;;24.98;50.14;100373.97;5072241;28;20048;-64
2023/06/10 01:06:33;;;;;;;5.88;4.07;;;;;;;25.05;50.15;100373.06;5070072;28;20068;-61
2023/06/10 01:09:25;;;;;;;7.05;4.45;;;;;;;25.02;50.37;100371.88;5054924;28;20069;-60
2023/06/10 01:12:10;;;;;;;7.35;4.70;;;;;;;25.09;50.10;100371.81;5074030;28;20061;-60
2023/06/10 01:14:38;;;;;;;6.50;4.25;;;;;;;25.01;50.60;100375.94;5058401;28;20496;-61
2023/06/10 01:17:06;;;;;;;7.97;4.35;;;;;;;24.86;50.99;100376.50;5074389;28;20139;-60
2023/06/10 01:19:36;;;;;;;7.47;4.47;;;;;;;24.63;52.08;100374.28;5053144;28;20056;-60
2023/06/10 01:22:05;;;;;;;12.15;4.78;;;;;;;24.59;52.06;100376.31;5055892;28;20049;-63
2023/06/10 01:24:34;;;;;;;8.80;4.63;;;;;;;24.79;51.62;100379.38;5054861;28;20060;-61
2023/06/10 01:27:06;;;;;;;6.75;4.35;;;;;;;24.75;52.21;100370.16;5047908;28;20113;-60
2023/06/10 01:29:39;;;;;;;6.70;4.28;;;;;;;24.61;52.84;100373.91;5094844;28;20048;-64
2023/06/10 01:32:30;;;;;;;7.43;4.45;;;;;;;24.78;52.47;100372.94;5069801;28;20555;-63
2023/06/10 01:34:59;;;;;;;8.48;4.40;;;;;;;24.79;52.09;100368.94;5055228;28;20060;-63
2023/06/10 01:37:27;;;;;;;7.60;4.38;;;;;;;24.80;52.27;100367.69;5061641;28;20056;-63
2023/06/10 01:39:57;;;;;;;6.88;4.25;;;;;;;24.59;53.19;100372.69;5055792;28;20075;-63
2023/06/10 01:42:25;;;;;;;;;;;;;;;24.44;53.65;100378.44;5056630;28;20052;-64
2023/06/10 01:44:52;;;;;;;7.15;4.28;;;;;;;24.51;53.63;100383.25;5074389;28;19928;-63
2023/06/10 01:47:20;;;;;;;7.55;4.63;;;;;;;24.61;52.96;100379.53;5075190;28;20049;-63
2023/06/10 01:49:47;;;;;;;8.68;4.55;;;;;;;24.35;54.20;100383.78;5057246;28;20051;-63
2023/06/10 01:52:15;;;;;;;8.60;4.40;;;;;;;24.31;54.35;100393.44;5056551;28;20803;-63
2023/06/10 01:54:42;;;;;;;8.38;4.68;;;;;;;24.13;54.85;100387.94;5065503;28;20056;-60
2023/06/10 01:57:10;;;;;;;6.70;4.03;;;;;;;24.23;54.75;100389.09;5056601;28;20060;-62
2023/06/10 01:59:38;;;;;;;8.35;4.53;;;;;;;24.13;55.17;100390.00;5045811;28;20491;-60
2023/06/10 02:02:05;;;;;;;7.22;4.57;;;;;;;24.28;54.50;100395.09;5055133;28;20052;-65
2023/06/10 02:04:32;;;;;;;6.97;4.10;;;;;;;24.14;54.99;100389.56;5063503;28;20053;-63
2023/06/10 02:07:04;;;;;;;5.75;4.55;;;;;;;24.20;54.97;100387.91;5071682;28;20055;-61
2023/06/10 02:09:34;;;;;;;11.07;4.68;;;;;;;24.08;55.40;100393.22;5074717;28;20531;-61
2023/06/10 02:12:03;;;;;;;7.38;4.45;;;;;;;24.18;55.41;100403.63;5075227;28;20404;-61
2023/06/10 02:14:32;;;;;;;8.30;4.32;;;;;;;24.35;54.82;100394.22;5057166;28;20067;-61
2023/06/10 02:17:00;;;;;;;7.65;4.25;;;;;;;24.27;54.78;100387.84;5075034;28;20071;-61
2023/06/10 02:19:28;;;;;;;9.05;4.30;;;;;;;23.96;55.98;100394.47;5049555;28;20058;-60
2023/06/10 02:21:55;;;;;;;8.70;4.20;;;;;;;24.11;55.63;100396.00;5046136;28;20045;-61
2023/06/10 02:24:23;;;;;;;6.53;4.22;;;;;;;24.14;55.33;100392.38;5074044;28;20530;-60
2023/06/10 02:26:51;;;;;;;9.23;4.78;;;;;;;24.07;55.47;100386.81;5061324;28;20059;-63
2023/06/10 02:29:20;;;;;;;7.68;4.50;;;;;;;23.99;56.20;100390.03;5095376;28;20056;-63
2023/06/10 02:31:47;;;;;;;5.60;4.30;;;;;;;24.04;56.28;100386.81;5083907;28;20499;-63
2023/06/10 02:34:15;;;;;;;7.00;4.45;;;;;;;23.97;56.04;100389.66;5072305;28;20056;-64
2023/06/10 02:36:43;;;;;;;8.07;4.63;;;;;;;23.94;56.40;100396.09;5059753;28;20063;-64
2023/06/10 02:39:10;;;;;;;7.88;4.65;;;;;;;23.84;56.71;100392.13;5072828;28;20056;-61
2023/06/10 02:41:37;;;;;;;8.63;4.70;;;;;;;23.67;57.34;100393.03;5059472;28;20059;-64
2023/06/10 02:44:05;;;;;;;8.18;4.70;;;;;;;23.74;57.19;100398.63;5065466;28;20698;-61
2023/06/10 02:46:33;;;;;;;6.65;4.65;;;;;;;23.67;57.36;100398.66;5059245;28;20053;-61
2023/06/10 02:49:02;;;;;;;6.22;4.57;;;;;;;23.75;57.26;100405.03;5053141;28;20057;-62
2023/06/10 02:51:30;;;;;;;7.20;4.38;;;;;;;23.88;56.81;100409.00;5042494;28;20056;-61
2023/06/10 02:54:00;;;;;;;8.38;4.43;;;;;;;23.70;57.59;100395.03;5053234;28;20049;-64
2023/06/10 02:56:28;;;;;;;9.20;5.10;;;;;;;23.46;58.17;100401.56;5052781;28;20049;-64
2023/06/10 02:59:00;;;;;;;7.95;4.75;;;;;;;23.44;58.56;100409.59;5058720;28;20048;-60
2023/06/10 03:01:31;;;;;;;9.75;4.65;;;;;;;23.61;58.05;100403.09;5072780;28;20060;-62
2023/06/10 03:04:06;;;;;;;8.07;4.65;;;;;;;23.46;58.39;100401.56;5057783;28;20055;-61
2023/06/10 03:06:35;;;;;;;13.83;5.07;;;;;;;23.48;58.38;100403.97;5056305;28;20503;-64
2023/06/10 03:09:15;;;;;;;11.63;5.00;;;;;;;23.39;58.66;100410.84;5072104;28;20049;-63
2023/06/10 03:11:45;;;;;;;11.20;5.50;;;;;;;23.41;58.59;100404.81;5072949;28;20067;-61
2023/06/10 03:14:13;;;;;;;10.45;5.07;;;;;;;23.24;59.35;100414.06;5072041;28;20075;-61
2023/06/10 03:16:42;;;;;;;11.02;4.70;;;;;;;23.24;59.47;100414.06;5046291;28;20057;-64
2023/06/10 03:19:10;;;;;;;11.63;4.85;;;;;;;23.16;59.65;100418.91;5054533;28;20048;-64
2023/06/10 03:21:44;;;;;;;8.40;4.22;;;;;;;22.97;60.36;100416.53;5069434;28;20049;-61
2023/06/10 03:24:13;;;;;;;8.90;4.55;;;;;;;23.10;59.98;100417.69;5057859;28;20111;-61
2023/06/10 03:26:41;;;;;;;8.15;4.78;;;;;;;22.90;60.42;100416.56;5074467;28;20044;-65
2023/06/10 03:29:08;;;;;;;9.13;4.90;;;;;;;22.83;60.84;100416.56;5072377;28;20045;-60
2023/06/10 03:31:38;;;;;;;7.35;4.55;;;;;;;22.92;60.71;100407.72;5059033;28;20048;-61
2023/06/10 03:34:07;;;;;;;9.00;4.80;;;;;;;22.79;60.89;100403.72;5068434;28;20079;-61
2023/06/10 03:36:37;;;;;;;6.45;4.38;;;;;;;22.85;60.62;100402.91;5058506;28;20507;-61
2023/06/10 03:39:05;;;;;;;9.55;5.00;;;;;;;22.91;60.48;100415.34;5069094;28;20070;-61
2023/06/10 03:41:34;;;;;;;7.93;4.57;;;;;;;22.72;60.90;100423.38;5053227;28;20052;-61
2023/06/10 03:44:01;;;;;;;7.93;4.60;;;;;;;22.89;60.49;100416.97;5034696;28;20534;-61
2023/06/10 03:46:28;;;;;;;7.43;4.40;;;;;;;22.92;60.33;100411.34;5061649;28;20044;-62
2023/06/10 03:48:56;;;;;;;9.75;4.80;;;;;;;22.82;60.46;100422.59;5064460;28;20049;-61
2023/06/10 03:51:23;;;;;;;7.20;4.22;;;;;;;22.69;60.87;100425.00;5052932;28;20595;-62
2023/06/10 03:53:51;;;;;;;8.23;4.95;;;;;;;22.81;60.55;100420.97;5054880;28;20048;-62
2023/06/10 03:56:18;;;;;;;9.70;4.38;;;;;;;23.03;59.85;100425.38;5072448;28;20048;-61
2023/06/10 03:58:46;;;;;;;7.18;4.45;;;;;;;22.91;60.19;100412.53;5072285;28;20059;-60
2023/06/10 04:01:14;;;;;;;8.88;4.57;;;;;;;22.84;60.43;100423.00;5072980;28;20044;-61
2023/06/10 04:03:43;;;;;;;7.30;4.38;;;;;;;22.91;60.09;100423.75;5071779;28;20075;-61
2023/06/10 04:06:11;;;;;;;9.40;4.63;;;;;;;22.88;60.28;100433.00;5072110;28;20110;-61
2023/06/10 04:08:39;;;;;;;10.38;4.63;;;;;;;22.87;60.15;100428.59;5056228;28;20060;-61
2023/06/10 04:11:06;;;;;;;7.45;4.40;;;;;;;22.87;60.34;100431.41;5075971;28;20041;-60
2023/06/10 04:13:34;;;;;;;7.57;4.60;;;;;;;22.91;60.03;100440.63;5076004;28;20063;-62
2023/06/10 04:16:02;;;;;;;8.23;4.32;;;;;;;22.90;59.89;100438.22;5076162;28;20059;-61
2023/06/10 04:18:30;;;;;;;7.10;4.53;;;;;;;22.70;60.76;100440.63;5076058;28;20044;-61
2023/06/10 04:21:01;;;;;;;8.43;4.65;;;;;;;22.79;60.63;100443.84;5077358;28;20049;-61
2023/06/10 04:23:29;;;;;;;8.32;4.82;;;;;;;22.79;60.92;100443.84;5075328;28;20056;-61
2023/06/10 04:25:56;;;;;;;7.80;4.57;;;;;;;22.66;61.00;100444.66;5075620;28;20049;-61
2023/06/10 04:28:25;;;;;;;9.02;4.60;;;;;;;22.65;61.25;100443.06;5061898;28;20045;-61
2023/06/10 04:30:53;;;;;;;7.15;3.97;;;;;;;22.75;60.91;100442.25;5057036;28;20136;-61
2023/06/10 04:33:20;;;;;;;10.25;4.43;;;;;;;22.71;60.94;100452.66;5055438;28;20049;-61
2023/06/10 04:35:48;;;;;;;8.85;4.68;;;;;;;22.71;61.09;100455.47;5055555;28;20053;-61
2023/06/10 04:38:16;;;;;;;6.78;4.57;;;;;;;22.76;60.84;100450.25;5066581;28;20067;-61
2023/06/10 04:40:44;;;;;;;11.75;4.35;;;;;;;22.97;59.99;100453.06;5076725;28;20048;-61
2023/06/10 04:43:14;;;;;;;7.95;4.20;;;;;;;22.88;60.12;100465.91;5074551;28;20052;-60
2023/06/10 04:45:44;;;;;;;8.07;4.28;;;;;;;22.67;60.83;100449.88;5075640;28;20044;-61
2023/06/10 04:48:13;;;;;;;6.97;3.97;;;;;;;22.71;60.81;100464.72;5075550;28;20079;-61
2023/06/10 04:50:40;;;;;;;9.05;4.80;;;;;;;22.66;60.91;100467.94;5076810;28;20049;-60
2023/06/10 04:53:08;;;;;;;9.10;4.47;;;;;;;22.71;60.71;100469.53;5075407;28;20052;-61
2023/06/10 04:55:37;;;;;;;9.68;4.32;;;;;;;22.67;60.88;100469.53;5093052;28;20052;-60
2023/06/10 04:58:05;;;;;;;8.05;4.88;;;;;;;22.67;61.10;100465.91;5096341;28;20067;-61
2023/06/10 05:00:32;;;;;;;11.63;4.72;;;;;;;22.50;61.32;100467.47;5077007;28;20059;-61
2023/06/10 05:03:00;;;;;;;9.77;4.63;;;;;;;22.54;61.49;100471.13;5076390;28;20055;-62
2023/06/10 05:05:27;;;;;;;13.82;3.88;;;;;;;22.57;61.50;100478.75;5076757;28;20040;-61
2023/06/10 05:07:54;;;;;;;9.45;4.60;;;;;;;22.72;60.83;100471.94;5075371;28;20052;-62
2023/06/10 05:10:22;;;;;;;8.88;4.32;;;;;;;22.39;62.02;100468.69;5075300;28;20064;-61
2023/06/10 05:12:49;;;;;;;8.77;4.22;;;;;;;22.64;61.45;100470.31;5075411;28;20053;-61
2023/06/10 05:15:16;;;;;;;7.10;4.07;;;;;;;22.71;60.99;100472.31;5075823;28;20535;-62
2023/06/10 05:17:44;;;;;;;9.02;3.97;;;;;;;22.66;61.20;100475.53;5075852;28;20045;-62
2023/06/10 05:20:13;;;;;;;12.45;4.30;;;;;;;22.76;60.90;100472.72;5067464;28;20056;-60
2023/06/10 05:22:40;;;;;;;9.48;4.93;;;;;;;22.87;60.57;100478.34;5075790;28;20055;-61
2023/06/10 05:25:08;;;;;;;12.38;4.47;;;;;;;22.99;60.17;100481.56;5056121;28;20064;-61
2023/06/10 05:27:36;;;;;;;14.27;4.70;;;;;;;23.02;59.94;100483.56;5075095;28;20048;-61
2023/06/10 05:30:07;;;;;;;7.13;4.10;;;;;;;23.04;60.05;100480.34;5096369;28;20517;-62
2023/06/10 05:32:34;;;;;;;;;;;;;;;22.98;60.16;100491.19;5075467;28;20060;-61
2023/06/10 05:35:03;;;;;;;7.78;4.47;;;;;;;23.04;59.99;100486.78;5075754;28;19928;-61
2023/06/10 05:37:30;;;;;;;7.83;4.23;;;;;;;23.17;59.94;100482.31;5073231;28;20400;-62
2023/06/10 05:39:58;;;;;;;7.82;4.18;;;;;;;23.29;59.66;100483.94;5066689;28;20417;-61
2023/06/10 05:42:25;;;;;;;8.35;4.70;;;;;;;23.60;58.52;100483.06;5055930;28;20052;-61
2023/06/10 05:44:52;;;;;;;9.25;4.35;;;;;;;23.28;59.40;100479.53;5054544;28;20053;-61
2023/06/10 05:47:20;;;;;;;7.90;4.47;;;;;;;23.04;59.95;100485.97;5055708;28;20143;-61
2023/06/10 05:49:49;;;;;;;14.48;4.43;;;;;;;22.82;60.98;100487.97;5060631;28;20040;-61
2023/06/10 05:52:18;;;;;;;9.13;4.80;;;;;;;22.99;60.67;100500.41;5058287;28;20048;-61
2023/06/10 05:54:45;;;;;;;8.02;4.75;;;;;;;22.68;61.38;100498.41;5064234;28;20053;-60
2023/06/10 05:57:13;;;;;;;9.95;4.40;;;;;;;22.85;60.99;100494.81;5060351;28;20048;-61
2023/06/10 05:59:40;;;;;;;8.68;4.75;;;;;;;22.97;60.83;100495.19;5067797;28;20044;-62
2023/06/10 06:02:07;;;;;;;8.30;4.55;;;;;;;23.17;60.36;100487.94;5055960;28;20045;-61
2023/06/10 06:04:35;;;;;;;8.88;4.22;;;;;;;23.12;60.40;100493.97;5073900;28;20052;-61
2023/06/10 06:07:03;;;;;;;11.70;4.93;;;;;;;23.31;59.79;100498.38;5071582;28;20045;-61
2023/06/10 06:09:31;;;;;;;8.68;5.00;;;;;;;23.24;60.04;100501.19;5074244;28;20523;-61
2023/06/10 06:11:58;;;;;;;11.55;4.90;;;;;;;23.31;59.88;100495.56;5072087;28;20056;-61
2023/06/10 06:14:25;;;;;;;11.93;4.82;;;;;;;23.41;59.46;100495.53;5055244;28;20061;-61
2023/06/10 06:16:52;;;;;;;9.20;4.45;;;;;;;23.31;59.73;100487.13;5055304;28;20061;-61
2023/06/10 06:19:20;;;;;;;9.90;4.70;;;;;;;23.29;60.02;100489.56;5053370;28;20063;-61
2023/06/10 06:21:47;;;;;;;9.38;4.57;;;;;;;23.34;59.76;100495.56;5053916;28;20827;-61
2023/06/10 06:24:15;;;;;;;10.52;5.13;;;;;;;23.30;60.10;100499.59;5054924;28;20045;-61
2023/06/10 06:26:43;;;;;;;8.55;5.07;;;;;;;23.51;59.58;100490.31;5058768;28;20437;-60
2023/06/10 06:29:10;;;;;;;7.10;4.57;;;;;;;23.29;59.98;100490.34;5095341;28;20043;-61
2023/06/10 06:31:38;;;;;;;11.23;5.07;;;;;;;23.43;59.83;100495.16;5070207;28;20068;-62
2023/06/10 06:34:05;;;;;;;10.13;4.97;;;;;;;23.47;59.53;100503.59;5073459;28;20048;-62
2023/06/10 06:36:32;;;;;;;8.40;4.72;;;;;;;23.60;59.59;100502.75;5074726;28;20435;-63
2023/06/10 06:39:00;;;;;;;7.07;4.45;;;;;;;23.73;58.74;100506.69;5074443;28;20492;-63
2023/06/10 06:41:28;;;;;;;9.82;4.75;;;;;;;23.49;59.41;100504.78;5056853;28;20052;-61
2023/06/10 06:43:56;;;;;;;10.32;4.72;;;;;;;23.64;59.22;100499.91;5074210;28;20044;-61
2023/06/10 06:46:36;;;;;;;9.68;4.50;;;;;;;23.58;59.63;100512.78;5062467;28;20048;-62
2023/06/10 06:49:04;;;;;;;11.85;4.90;;;;;;;23.73;59.82;100508.72;5058891;28;20041;-62
2023/06/10 06:51:31;;;;;;;12.25;4.88;;;;;;;23.80;59.47;100514.34;5054066;28;20044;-61
2023/06/10 06:53:58;;;;;;;9.55;4.47;;;;;;;23.73;59.87;100514.38;5060406;28;20041;-61
2023/06/10 06:56:27;;;;;;;8.88;4.47;;;;;;;23.49;60.67;100516.03;5062552;28;20040;-61
2023/06/10 06:58:55;;;;;;;8.00;4.90;;;;;;;23.96;59.33;100523.09;5069207;28;20056;-61
2023/06/10 07:01:24;;;;;;;13.40;4.50;;;;;;;23.89;59.56;100523.13;5066640;28;20060;-61
2023/06/10 07:03:52;;;;;;;11.20;4.53;;;;;;;24.03;59.27;100523.91;5062757;28;20045;-60
2023/06/10 07:06:19;;;;;;;8.25;4.63;;;;;;;23.99;59.35;100517.47;5056397;28;20056;-61
2023/06/10 07:08:46;;;;;;;9.15;4.57;;;;;;;23.97;59.17;100528.31;5062940;28;20052;-61
2023/06/10 07:11:14;;;;;;;10.23;4.82;;;;;;;24.14;59.33;100529.50;5051316;28;20068;-61
2023/06/10 07:13:41;;;;;;;7.75;4.47;;;;;;;24.28;58.93;100532.22;5052635;28;20049;-61
2023/06/10 07:16:09;;;;;;;9.73;4.30;;;;;;;24.26;58.36;100523.38;5052720;28;20404;-61
2023/06/10 07:18:36;;;;;;;9.90;4.45;;;;;;;24.29;59.03;100522.56;5065776;28;20052;-61
2023/06/10 07:21:04;;;;;;;8.13;4.43;;;;;;;24.35;58.95;100526.56;5060314;28;20040;-62
2023/06/10 07:23:31;;;;;;;10.30;4.45;;;;;;;24.56;58.19;100526.44;5066420;28;20049;-61
2023/06/10 07:25:59;;;;;;;8.82;4.88;;;;;;;24.68;57.81;100522.31;5066126;28;20045;-61
2023/06/10 07:28:26;;;;;;;10.88;4.70;;;;;;;24.97;56.99;100526.53;5059137;28;20139;-60
2023/06/10 07:30:53;;;;;;;12.02;4.50;;;;;;;25.11;56.54;100526.41;5058784;28;20044;-61
2023/06/10 07:33:21;;;;;;;10.13;4.35;;;;;;;25.09;57.08;100528.88;5056985;28;20051;-61
2023/06/10 07:35:48;;;;;;;7.85;4.13;;;;;;;25.36;56.49;100529.81;5066915;28;20052;-62
2023/06/10 07:38:17;;;;;;;8.07;4.32;;;;;;;25.62;55.41;100534.00;5068570;28;20066;-61
2023/06/10 07:40:44;;;;;;;9.00;4.53;;;;;;;25.80;55.01;100526.97;5065836;28;20040;-60
2023/06/10 07:43:11;;;;;;;9.00;4.22;;;;;;;25.89;54.46;100540.56;5053942;28;20048;-60
2023/06/10 07:45:42;;;;;;;9.55;4.50;;;;;;;26.14;53.72;100533.41;5058940;28;20079;-62
2023/06/10 07:48:10;;;;;;;9.23;4.40;;;;;;;26.06;54.67;100543.19;5056304;28;20060;-61
2023/06/10 07:50:40;;;;;;;9.85;4.22;;;;;;;25.91;54.30;100540.94;5060883;28;20061;-61
2023/06/10 07:53:07;;;;;;;7.30;3.67;;;;;;;26.22;53.80;100539.78;5053717;28;20056;-61
2023/06/10 07:55:34;;;;;;;8.65;3.97;;;;;;;26.07;53.70;100532.69;5070010;28;20711;-61
2023/06/10 07:58:02;;;;;;;11.02;4.18;;;;;;;26.15;54.03;100543.47;5054354;28;20048;-61
2023/06/10 08:00:29;;;;;;;9.20;3.67;;;;;;;26.41;52.74;100554.00;5058416;28;20049;-62
2023/06/10 08:02:57;;;;;;;10.95;3.30;;;;;;;26.36;52.35;100551.66;5054570;28;20065;-61
2023/06/10 08:05:24;;;;;;;9.75;3.97;;;;;;;26.86;51.08;100548.94;5056149;28;20059;-64
2023/06/10 08:07:51;;;;;;;8.95;3.50;;;;;;;27.01;50.81;100546.66;5065279;28;20451;-60
2023/06/10 08:10:19;;;;;;;7.65;3.85;;;;;;;27.08;51.02;100557.84;5059503;28;20146;-61
2023/06/10 08:12:47;;;;;;;12.00;4.38;;;;;;;27.40;51.06;100547.66;5059465;28;20499;-60
2023/06/10 08:15:14;;;;;;;10.82;3.90;;;;;;;26.97;50.50;100555.22;5064631;28;20049;-61
2023/06/10 08:17:42;;;;;;;6.50;3.55;;;;;;;27.10;50.76;100559.03;5049952;28;20061;-62
2023/06/10 08:20:09;;;;;;;6.53;4.22;;;;;;;26.92;50.83;100552.09;5058367;28;20049;-64
2023/06/10 08:22:37;;;;;;;7.50;4.22;;;;;;;26.61;51.32;100554.94;5054676;28;20048;-59
2023/06/10 08:25:05;;;;;;;9.48;3.80;;;;;;;26.21;53.13;100553.06;5060797;28;20514;-60
2023/06/10 08:27:33;;;;;;;11.05;3.90;;;;;;;26.67;51.75;100550.41;5043681;28;20159;-59
2023/06/10 08:30:01;;;;;;;8.20;4.00;;;;;;;26.21;52.09;100555.91;5059127;28;20047;-60
2023/06/10 08:32:28;;;;;;;6.88;4.13;;;;;;;26.16;52.69;100559.19;5062500;28;20052;-60
2023/06/10 08:34:55;;;;;;;10.43;4.20;;;;;;;26.08;53.50;100554.06;5053882;28;20044;-59
2023/06/10 08:37:24;;;;;;;10.00;5.20;;;;;;;26.49;52.58;100558.34;5052690;28;20061;-59
2023/06/10 08:39:51;;;;;;;10.45;3.50;;;;;;;26.67;51.00;100556.06;5054064;28;20053;-61
2023/06/10 08:42:33;;;;;;;8.25;4.38;;;;;;;26.34;52.02;100561.78;5056185;28;20416;-60
2023/06/10 08:45:02;;;;;;;7.68;3.90;;;;;;;26.32;52.47;100562.22;5065560;28;20048;-61
2023/06/10 08:47:35;;;;;;;10.57;4.07;;;;;;;26.32;52.74;100559.41;5054886;28;20061;-60
2023/06/10 08:50:06;;;;;;;10.50;4.35;;;;;;;26.21;53.74;100555.91;5046780;28;20063;-60
2023/06/10 08:52:42;;;;;;;11.82;3.90;;;;;;;26.27;53.54;100554.22;5058652;28;20045;-60
2023/06/10 08:55:27;;;;;;;10.32;4.00;;;;;;;26.21;53.67;100546.63;5059805;28;20052;-60
2023/06/10 08:58:02;;;;;;;10.38;3.20;;;;;;;26.37;52.93;100558.13;5029371;28;20060;-61
2023/06/10 09:00:31;;;;;;;4.65;3.10;;;;;;;26.34;53.06;100561.78;5051219;28;20060;-61
2023/06/10 09:02:59;;;;;;;8.38;3.38;;;;;;;26.43;53.16;100559.25;5058588;28;20441;-60
2023/06/10 09:05:34;;;;;;;10.65;3.75;;;;;;;26.59;52.36;100557.38;5076793;28;20048;-60
2023/06/10 09:08:01;;;;;;;7.57;3.30;;;;;;;26.61;51.83;100562.59;5058040;28;20064;-62
2023/06/10 09:10:29;;;;;;;7.25;3.15;;;;;;;26.19;52.82;100561.16;5057894;28;20415;-60
2023/06/10 09:12:57;;;;;;;12.48;3.55;;;;;;;26.16;53.06;100556.38;5056898;28;20052;-60
2023/06/10 09:15:24;;;;;;;8.07;3.10;;;;;;;26.50;52.60;100557.09;5058057;28;20053;-60
2023/06/10 09:17:51;;;;;;;6.25;2.90;;;;;;;26.96;50.77;100555.63;5055584;28;20053;-60
2023/06/10 09:20:19;;;;;;;5.70;3.13;;;;;;;26.67;51.54;100567.38;5064471;28;20063;-61
2023/06/10 09:22:46;;;;;;;6.50;3.28;;;;;;;26.43;52.88;100553.59;5055869;28;20040;-60
2023/06/10 09:25:14;;;;;;;7.28;3.45;;;;;;;26.34;52.58;100556.16;5054848;28;20052;-61
2023/06/10 09:27:50;;;;;;;6.90;2.97;;;;;;;26.59;52.18;100563.03;5061251;28;20048;-61
2023/06/10 09:30:29;;;;;;;5.50;2.42;;;;;;;26.78;50.88;100557.97;5057971;28;20307;-61
2023/06/10 09:32:58;;;;;;;6.47;2.90;;;;;;;26.80;50.88;100561.94;5062025;28;20079;-61
2023/06/10 09:35:27;;;;;;;8.07;3.10;;;;;;;27.05;50.25;100565.19;5061979;28;20049;-61
2023/06/10 09:37:56;;;;;;;5.20;3.10;;;;;;;26.86;51.05;100559.44;5061424;28;20052;-61
2023/06/10 09:40:24;;;;;;;5.50;2.70;;;;;;;27.14;49.31;100556.16;5056932;28;20060;-59
2023/06/10 09:42:59;;;;;;;6.65;2.50;;;;;;;26.97;49.47;100560.09;5059783;28;20051;-61
2023/06/10 09:45:34;;;;;;;7.05;2.70;;;;;;;27.00;49.37;100571.34;5063398;28;20059;-60
2023/06/10 09:48:01;;;;;;;4.38;2.70;;;;;;;27.14;49.39;100558.97;5057006;28;20055;-61
2023/06/10 09:50:33;;;;;;;5.15;3.15;;;;;;;27.29;48.79;100566.81;5057643;28;20057;-60
2023/06/10 09:53:02;;;;;;;6.80;3.17;;;;;;;27.38;48.58;100557.78;5058404;28;20044;-61
2023/06/10 09:55:33;;;;;;;6.78;3.00;;;;;;;27.37;48.88;100567.50;5062789;28;20048;-61
2023/06/10 09:58:00;;;;;;;10.35;4.60;;;;;;;27.40;48.43;100573.13;5061167;28;20516;-61
2023/06/10 10:00:27;;;;;;;7.88;3.22;;;;;;;27.20;48.78;100577.06;5064053;28;20099;-60
2023/06/10 10:02:55;;;;;;;10.68;3.00;;;;;;;27.33;47.92;100569.59;5064621;28;20083;-60
2023/06/10 10:05:23;;;;;;;4.88;2.50;;;;;;;26.99;48.18;100574.59;5065482;28;20068;-60
2023/06/10 10:07:51;;;;;;;8.25;2.88;;;;;;;26.81;47.85;100569.22;5062618;28;20053;-61
2023/06/10 10:10:20;;;;;;;6.78;3.10;;;;;;;27.01;47.55;100572.13;5061420;28;20056;-62
2023/06/10 10:12:50;;;;;;;5.18;3.00;;;;;;;27.19;47.72;100572.63;5065776;28;20041;-60
2023/06/10 10:15:20;;;;;;;;;;;;;;;27.30;48.04;100565.59;5065167;28;20056;-62
2023/06/10 10:18:07;;;;;;;9.52;3.40;;;;;;;27.33;47.84;100569.59;5062333;28;19928;-63
2023/06/10 10:20:43;;;;;;;7.15;3.10;;;;;;;27.09;48.39;100570.78;5057672;28;20056;-63
2023/06/10 10:23:13;;;;;;;6.95;3.22;;;;;;;27.33;48.18;100563.94;5057550;28;20052;-63
2023/06/10 10:25:41;;;;;;;6.53;2.80;;;;;;;27.33;48.07;100567.56;5054112;28;20444;-63
2023/06/10 10:28:11;;;;;;;9.65;3.38;;;;;;;27.39;47.55;100560.19;5048101;28;20060;-62
2023/06/10 10:31:02;;;;;;;9.10;3.58;;;;;;;27.48;47.43;100570.94;5055782;28;20049;-62
2023/06/10 10:33:29;;;;;;;7.20;3.20;;;;;;;27.44;47.15;100561.72;5059643;28;20044;-63
2023/06/10 10:35:57;;;;;;;6.60;3.25;;;;;;;27.58;46.79;100550.16;5054208;28;20052;-62
2023/06/10 10:38:25;;;;;;;9.18;3.40;;;;;;;27.61;46.69;100560.59;5062176;28;20052;-63
2023/06/10 10:40:52;;;;;;;6.07;3.13;;;;;;;27.61;46.14;100552.09;5059456;28;20511;-64
2023/06/10 10:43:20;;;;;;;6.65;3.28;;;;;;;27.39;47.27;100556.56;5061230;28;20045;-62
2023/06/10 10:45:58;;;;;;;6.28;3.35;;;;;;;27.64;47.37;100552.03;5046079;28;20056;-63
2023/06/10 10:48:29;;;;;;;5.78;3.10;;;;;;;27.66;47.43;100558.06;5055366;28;20045;-63
2023/06/10 10:50:57;;;;;;;6.93;3.30;;;;;;;27.91;46.16;100548.28;5042498;28;20055;-62
2023/06/10 10:53:28;;;;;;;6.85;3.30;;;;;;;27.71;45.69;100551.09;5058050;28;20053;-64
2023/06/10 10:56:08;;;;;;;7.15;3.20;;;;;;;27.71;46.01;100542.59;5065781;28;20514;-63
2023/06/10 10:58:38;;;;;;;12.15;3.60;;;;;;;28.13;45.63;100541.78;5055004;28;20053;-62
2023/06/10 11:01:14;;;;;;;7.88;3.50;;;;;;;27.97;45.26;100555.06;5053350;28;20053;-62
2023/06/10 11:03:44;;;;;;;7.63;3.60;;;;;;;28.00;45.82;100540.06;5057532;28;20056;-63
2023/06/10 11:06:12;;;;;;;;;;;;;;;28.09;44.97;100546.72;5056543;28;20063;-63
2023/06/10 11:08:46;;;;;;;5.65;2.97;;;;;;;27.84;44.61;100543.56;5056223;28;19939;-63
2023/06/10 11:11:23;;;;;;;6.63;3.05;;;;;;;27.94;43.71;100548.25;5053988;28;20059;-63
2023/06/10 11:14:06;;;;;;;6.70;3.53;;;;;;;28.12;42.81;100545.88;5057672;28;20048;-63
2023/06/10 11:16:41;;;;;;;8.02;3.63;;;;;;;28.01;42.99;100542.44;5052414;28;20057;-62
2023/06/10 11:19:09;;;;;;;9.27;3.10;;;;;;;28.15;43.03;100536.47;5068989;28;20045;-64
2023/06/10 11:21:58;;;;;;;8.07;2.85;;;;;;;28.42;42.72;100544.81;5054325;28;20606;-63
2023/06/10 11:24:26;;;;;;;7.13;3.17;;;;;;;28.48;41.91;100535.34;5054460;28;20094;-66
2023/06/10 11:26:53;;;;;;;6.93;3.75;;;;;;;28.43;41.89;100540.72;5052829;28;20045;-63
2023/06/10 11:29:21;;;;;;;8.43;3.58;;;;;;;28.68;41.41;100538.94;5068307;28;20068;-64
2023/06/10 11:31:51;;;;;;;10.70;3.60;;;;;;;28.58;41.33;100542.00;5055508;28;20045;-62
2023/06/10 11:34:24;;;;;;;4.75;3.00;;;;;;;28.50;42.17;100538.53;5056789;28;20059;-65